createdAt,value
2022-12-19T00:00:15.489Z,41.92
2022-12-19T00:03:01.262Z,27.73
2022-12-19T00:05:46.779Z,31.23
2022-12-19T00:08:33.319Z,29.95
2022-12-19T00:11:22.612Z,29.92
2022-12-19T00:14:11.665Z,34.53
2022-12-19T00:16:57.166Z,35.90
2022-12-19T00:19:43.196Z,32.97
2022-12-19T00:22:28.704Z,29.75
2022-12-19T00:25:14.256Z,38.90
2022-12-19T00:28:00.344Z,35.13
2022-12-19T00:30:45.939Z,32.25
2022-12-19T00:33:32.239Z,28.65
2022-12-19T00:36:23.182Z,31.88
2022-12-19T00:39:10.572Z,32.95
2022-12-19T00:41:56.243Z,35.15
2022-12-19T00:44:41.670Z,26.75
2022-12-19T00:47:30.148Z,32.45
2022-12-19T00:50:15.530Z,29.55
2022-12-19T00:53:00.949Z,35.67
2022-12-19T00:55:46.360Z,34.53
2022-12-19T00:58:35.333Z,32.00
2022-12-19T01:01:34.839Z,30.67
2022-12-19T01:04:29.135Z,34.78
2022-12-19T01:07:15.519Z,35.65
2022-12-19T01:10:00.840Z,35.67
2022-12-19T01:12:46.279Z,33.08
2022-12-19T01:15:31.679Z,33.75
2022-12-19T01:18:17.339Z,37.78
2022-12-19T01:21:07.581Z,30.48
2022-12-19T01:23:53.172Z,31.95
2022-12-19T01:26:38.472Z,33.97
2022-12-19T01:29:23.866Z,36.33
2022-12-19T01:32:09.321Z,33.08
2022-12-19T01:34:54.813Z,35.22
2022-12-19T01:37:40.261Z,35.38
2022-12-19T01:40:26.007Z,41.40
2022-12-19T01:43:15.731Z,32.38
2022-12-19T01:46:06.037Z,27.83
2022-12-19T01:48:52.036Z,30.63
2022-12-19T01:51:45.932Z,32.65
2022-12-19T01:54:38.138Z,25.48
2022-12-19T01:57:23.690Z,24.80
2022-12-19T02:00:10.620Z,26.05
2022-12-19T02:03:10.888Z,24.00
2022-12-19T02:06:00.020Z,21.90
2022-12-19T02:08:48.776Z,25.23
2022-12-19T02:11:34.368Z,25.02
2022-12-19T02:14:20.372Z,22.02
2022-12-19T02:17:30.202Z,22.50
2022-12-19T02:20:45.248Z,21.38
2022-12-19T02:23:48.759Z,21.63
2022-12-19T02:27:26.410Z,20.92
2022-12-19T02:30:49.546Z,20.77
2022-12-19T02:34:17.614Z,20.88
2022-12-19T02:37:12.035Z,19.13
2022-12-19T02:40:23.830Z,22.15
2022-12-19T02:43:23.396Z,20.67
2022-12-19T02:46:10.108Z,20.00
2022-12-19T02:48:56.590Z,24.15
2022-12-19T02:51:42.374Z,23.48
2022-12-19T02:54:27.823Z,21.42
2022-12-19T02:57:16.050Z,25.23
2022-12-19T03:00:10.243Z,23.60
2022-12-19T03:03:07.823Z,23.65
2022-12-19T03:06:23.834Z,22.77
2022-12-19T03:09:40.728Z,27.27
2022-12-19T03:12:38.324Z,21.17
2022-12-19T03:15:24.611Z,25.92
2022-12-19T03:18:10.867Z,23.33
2022-12-19T03:21:21.491Z,19.33
2022-12-19T03:24:10.719Z,20.92
2022-12-19T03:27:29.665Z,22.38
2022-12-19T03:30:15.809Z,22.98
2022-12-19T03:33:02.769Z,25.48
2022-12-19T03:35:51.007Z,20.98
2022-12-19T03:38:39.692Z,20.33
2022-12-19T03:41:45.092Z,19.80
2022-12-19T03:44:35.472Z,20.85
2022-12-19T03:47:39.461Z,19.50
2022-12-19T03:50:29.042Z,21.30
2022-12-19T03:53:34.183Z,19.20
2022-12-19T03:56:44.711Z,20.25
2022-12-19T03:59:44.706Z,21.13
2022-12-19T04:02:34.422Z,23.00
2022-12-19T04:05:23.821Z,22.38
2022-12-19T04:08:11.603Z,21.00
2022-12-19T04:11:08.054Z,20.88
2022-12-19T04:14:08.369Z,22.80
2022-12-19T04:17:24.250Z,21.75
2022-12-19T04:20:19.240Z,26.13
2022-12-19T04:23:21.523Z,24.33
2022-12-19T04:26:08.821Z,31.45
2022-12-19T04:28:59.705Z,35.03
2022-12-19T04:31:46.251Z,35.08
2022-12-19T04:34:36.852Z,26.15
2022-12-19T04:37:26.008Z,25.92
2022-12-19T04:40:12.619Z,22.98
2022-12-19T04:42:58.262Z,23.85
2022-12-19T04:45:43.821Z,22.15
2022-12-19T04:48:29.880Z,20.23
2022-12-19T04:51:16.265Z,23.10
2022-12-19T04:54:01.991Z,22.20
2022-12-19T04:56:47.371Z,22.35
2022-12-19T04:59:32.983Z,22.52
2022-12-19T05:02:18.646Z,24.95
2022-12-19T05:05:05.031Z,25.23
2022-12-19T05:07:51.398Z,25.52
2022-12-19T05:10:37.694Z,25.77
2022-12-19T05:13:23.422Z,20.15
2022-12-19T05:16:12.861Z,25.75
2022-12-19T05:18:58.734Z,23.55
2022-12-19T05:21:44.276Z,23.63
2022-12-19T05:24:29.625Z,22.08
2022-12-19T05:27:15.067Z,20.35
2022-12-19T05:30:01.348Z,21.10
2022-12-19T05:32:46.909Z,22.02
2022-12-19T05:35:33.481Z,20.67
2022-12-19T05:38:19.130Z,25.58
2022-12-19T05:41:21.428Z,27.23
2022-12-19T05:44:06.788Z,24.83
2022-12-19T05:46:52.374Z,24.13
2022-12-19T05:49:41.703Z,22.75
2022-12-19T05:52:27.199Z,25.98
2022-12-19T05:55:12.815Z,21.42
2022-12-19T05:57:58.219Z,23.55
2022-12-19T06:00:43.777Z,26.55
2022-12-19T06:03:29.780Z,21.98
2022-12-19T06:06:19.873Z,24.08
2022-12-19T06:09:05.874Z,22.10
2022-12-19T06:11:51.217Z,22.65
2022-12-19T06:14:37.079Z,25.50
2022-12-19T06:17:22.647Z,20.77
2022-12-19T06:20:08.865Z,20.45
2022-12-19T06:22:54.703Z,21.55
2022-12-19T06:25:40.185Z,23.35
2022-12-19T06:28:27.499Z,22.08
2022-12-19T06:31:14.576Z,22.75
2022-12-19T06:34:03.033Z,22.92
2022-12-19T06:36:48.711Z,19.35
2022-12-19T06:39:33.987Z,19.10
2022-12-19T06:42:25.289Z,25.58
2022-12-19T06:45:10.880Z,23.90
2022-12-19T06:47:56.855Z,17.33
2022-12-19T06:50:43.170Z,20.38
2022-12-19T06:53:29.247Z,15.15
2022-12-19T06:56:17.107Z,23.55
2022-12-19T06:59:03.323Z,19.58
2022-12-19T07:02:18.475Z,21.80
2022-12-19T07:05:07.871Z,22.58
2022-12-19T07:07:53.609Z,24.05
2022-12-19T07:10:39.160Z,20.60
2022-12-19T07:13:24.863Z,20.95
2022-12-19T07:16:10.774Z,24.98
2022-12-19T07:18:56.495Z,23.98
2022-12-19T07:21:42.019Z,21.80
2022-12-19T07:24:27.510Z,18.88
2022-12-19T07:27:13.041Z,18.05
2022-12-19T07:29:58.420Z,23.55
2022-12-19T07:32:43.921Z,22.48
2022-12-19T07:35:29.947Z,21.65
2022-12-19T07:38:15.471Z,22.65
2022-12-19T07:41:02.301Z,22.80
2022-12-19T07:43:47.679Z,23.40
2022-12-19T07:46:33.213Z,17.67
2022-12-19T07:49:22.597Z,24.15
2022-12-19T07:52:08.744Z,22.38
2022-12-19T07:54:54.170Z,22.25
2022-12-19T07:57:39.918Z,17.80
2022-12-19T08:00:25.528Z,22.67
2022-12-19T08:03:10.966Z,20.83
2022-12-19T08:06:03.096Z,20.35
2022-12-19T08:08:48.977Z,25.63
2022-12-19T08:11:34.928Z,25.70
2022-12-19T08:14:21.162Z,18.52
2022-12-19T08:17:22.269Z,24.55
2022-12-19T08:20:11.371Z,22.98
2022-12-19T08:22:56.713Z,20.48
2022-12-19T08:25:42.185Z,22.30
2022-12-19T08:28:27.947Z,18.92
2022-12-19T08:31:17.574Z,19.73
2022-12-19T08:34:03.295Z,24.85
2022-12-19T08:36:48.735Z,22.63
2022-12-19T08:39:34.109Z,20.63
2022-12-19T08:42:19.509Z,23.85
2022-12-19T08:45:05.871Z,23.52
2022-12-19T08:47:51.257Z,25.60
2022-12-19T08:50:36.734Z,25.27
2022-12-19T08:53:26.431Z,21.33
2022-12-19T08:56:19.399Z,23.55
2022-12-19T08:59:06.104Z,27.38
2022-12-19T09:01:52.225Z,25.48
2022-12-19T09:05:57.447Z,27.92
2022-12-19T09:07:43.599Z,25.35
2022-12-19T09:10:30.354Z,26.38
2022-12-19T09:13:16.088Z,26.10
2022-12-19T09:16:18.563Z,30.38
2022-12-19T09:19:04.350Z,25.75
2022-12-19T09:21:49.769Z,26.92
2022-12-19T09:24:35.240Z,28.63
2022-12-19T09:27:20.535Z,24.52
2022-12-19T09:30:06.828Z,25.80
2022-12-19T09:32:52.427Z,30.00
2022-12-19T09:35:37.816Z,28.23
2022-12-19T09:38:25.612Z,29.45
2022-12-19T09:41:14.124Z,26.63
2022-12-19T09:44:11.033Z,27.67
2022-12-19T09:47:09.979Z,26.23
2022-12-19T09:49:57.252Z,25.80
2022-12-19T09:52:50.073Z,27.27
2022-12-19T09:55:40.743Z,29.67
2022-12-19T09:58:43.758Z,32.35
2022-12-19T10:01:39.670Z,27.23
2022-12-19T10:04:29.600Z,27.08
2022-12-19T10:07:33.152Z,29.10
2022-12-19T10:12:42.399Z,27.83
2022-12-19T10:14:41.773Z,31.67
2022-12-19T10:17:52.111Z,26.45
2022-12-19T10:20:45.078Z,31.63
2022-12-19T10:23:33.454Z,27.75
2022-12-19T10:26:44.585Z,30.55
2022-12-19T10:29:48.613Z,29.52
2022-12-19T10:33:02.827Z,30.63
2022-12-19T10:35:57.547Z,28.77
2022-12-19T10:38:59.702Z,29.50
2022-12-19T10:41:47.600Z,27.80
2022-12-19T10:44:38.601Z,27.83
2022-12-19T10:47:24.360Z,29.73
2022-12-19T10:50:24.503Z,27.70
2022-12-19T10:53:12.877Z,27.85
2022-12-19T10:56:13.494Z,31.83
2022-12-19T10:59:00.041Z,35.25
2022-12-19T11:02:00.542Z,32.40
2022-12-19T11:04:48.212Z,27.95
2022-12-19T11:07:34.545Z,31.15
2022-12-19T11:11:32.571Z,27.80
2022-12-19T11:18:43.403Z,28.27
2022-12-19T11:19:59.776Z,29.85
2022-12-19T11:22:55.072Z,29.40
2022-12-19T11:29:34.556Z,31.98
2022-12-19T11:30:43.170Z,31.38
2022-12-19T11:33:14.706Z,30.05
2022-12-19T11:36:02.295Z,29.52
2022-12-19T11:38:54.212Z,30.17
2022-12-19T11:41:57.015Z,29.63
2022-12-19T11:45:03.414Z,28.38
2022-12-19T11:48:20.506Z,28.73
2022-12-19T11:51:31.514Z,31.58
2022-12-19T11:54:30.481Z,34.10
2022-12-19T11:57:16.558Z,28.80
2022-12-19T12:00:05.372Z,32.53
2022-12-19T12:03:10.190Z,35.63
2022-12-19T12:06:00.696Z,33.55
2022-12-19T12:10:59.125Z,30.00
2022-12-19T12:19:03.229Z,33.92
2022-12-19T12:27:44.715Z,30.13
2022-12-19T12:31:23.616Z,31.05
2022-12-19T12:31:40.801Z,31.50
2022-12-19T12:31:51.726Z,37.00
2022-12-19T12:32:02.056Z,26.10
2022-12-19T12:35:45.386Z,32.35
2022-12-19T12:41:15.399Z,31.13
2022-12-19T12:44:11.179Z,44.72
2022-12-19T12:47:30.155Z,28.90
2022-12-19T12:50:18.438Z,44.35
2022-12-19T12:53:09.443Z,30.80
2022-12-19T12:55:56.902Z,37.70
2022-12-19T12:58:53.962Z,44.20
2022-12-19T13:01:41.277Z,37.58
2022-12-19T13:04:32.889Z,46.35
2022-12-19T13:07:52.880Z,31.73
2022-12-19T13:10:38.639Z,33.00
2022-12-19T13:13:58.116Z,34.65
2022-12-19T13:16:43.448Z,38.22
2022-12-19T13:19:38.336Z,31.67
2022-12-19T13:22:40.905Z,28.30
2022-12-19T13:28:20.750Z,33.15
2022-12-19T13:31:18.452Z,30.48
2022-12-19T13:34:17.335Z,37.83
2022-12-19T13:39:49.773Z,33.88
2022-12-19T13:41:22.997Z,34.95
2022-12-19T13:44:09.515Z,34.25
2022-12-19T13:46:56.309Z,36.10
2022-12-19T13:49:44.452Z,31.63
2022-12-19T13:52:29.837Z,33.80
2022-12-19T13:55:15.321Z,31.75
2022-12-19T13:58:05.021Z,36.47
2022-12-19T14:00:53.892Z,34.10
2022-12-19T14:03:44.379Z,33.92
2022-12-19T14:06:59.854Z,35.75
2022-12-19T14:11:34.414Z,32.38
2022-12-19T14:13:46.771Z,34.58
2022-12-19T14:16:43.375Z,34.15
2022-12-19T14:19:30.916Z,30.83
2022-12-19T14:22:25.373Z,32.97
2022-12-19T14:28:22.145Z,43.33
2022-12-19T14:28:30.285Z,37.83
2022-12-19T14:31:17.962Z,39.90
2022-12-19T14:34:35.719Z,34.17
2022-12-19T14:39:18.422Z,40.42
2022-12-19T14:52:34.153Z,31.05
2022-12-19T14:54:11.823Z,31.95
2022-12-19T14:54:21.094Z,35.75
2022-12-19T14:55:05.547Z,30.83
2022-12-19T14:57:46.402Z,37.95
2022-12-19T15:01:09.805Z,34.40
2022-12-19T15:04:50.920Z,37.00
2022-12-19T15:07:14.595Z,37.78
2022-12-19T15:11:03.943Z,37.78
2022-12-19T15:14:53.738Z,31.58
2022-12-19T15:16:34.734Z,37.45
2022-12-19T15:19:20.450Z,34.65
2022-12-19T15:22:05.717Z,31.50
2022-12-19T15:24:51.645Z,29.63
2022-12-19T15:27:47.470Z,33.35
2022-12-19T15:30:37.997Z,35.42
2022-12-19T15:33:23.787Z,33.28
2022-12-19T15:36:09.918Z,36.42
2022-12-19T15:38:55.241Z,33.47
2022-12-19T15:41:41.663Z,37.28
2022-12-19T15:44:42.079Z,29.85
2022-12-19T15:47:32.961Z,33.50
2022-12-19T15:50:25.064Z,31.08
2022-12-19T15:53:34.641Z,33.17
2022-12-19T15:56:30.531Z,36.55
2022-12-19T15:59:53.232Z,36.13
2022-12-19T16:05:45.974Z,37.88
2022-12-19T16:08:31.640Z,36.55
2022-12-19T16:11:24.451Z,39.15
2022-12-19T16:14:12.268Z,36.83
2022-12-19T16:16:57.966Z,36.90
2022-12-19T16:19:44.582Z,38.72
2022-12-19T16:22:30.087Z,37.92
2022-12-19T16:25:16.208Z,41.45
2022-12-19T16:28:05.226Z,40.70
2022-12-19T16:30:50.884Z,34.47
2022-12-19T16:33:36.198Z,42.83
2022-12-19T16:36:22.185Z,39.20
2022-12-19T16:39:07.964Z,37.70
2022-12-19T16:41:53.245Z,35.60
2022-12-19T16:44:38.574Z,36.38
2022-12-19T16:47:23.993Z,42.08
2022-12-19T16:50:30.982Z,41.72
2022-12-19T16:53:17.642Z,40.53
2022-12-19T16:56:04.643Z,43.17
2022-12-19T16:58:51.775Z,40.95
2022-12-19T17:01:37.751Z,41.63
2022-12-19T17:04:26.055Z,39.33
2022-12-19T17:07:11.880Z,38.17
2022-12-19T17:09:57.395Z,38.50
2022-12-19T17:12:44.189Z,36.92
2022-12-19T17:15:33.762Z,43.10
2022-12-19T17:18:29.669Z,37.00
2022-12-19T17:21:22.129Z,38.35
2022-12-19T17:24:15.847Z,38.33
2022-12-19T17:27:01.139Z,36.72
2022-12-19T17:29:47.208Z,39.63
2022-12-19T17:32:33.248Z,38.42
2022-12-19T17:35:27.805Z,34.63
2022-12-19T17:38:17.052Z,38.80
2022-12-19T17:41:02.761Z,37.97
2022-12-19T17:43:48.899Z,35.28
2022-12-19T17:46:38.328Z,36.05
2022-12-19T17:49:31.492Z,35.17
2022-12-19T17:52:19.992Z,28.80
2022-12-19T17:55:16.900Z,32.60
2022-12-19T17:58:02.543Z,30.88
2022-12-19T18:00:49.381Z,29.90
2022-12-19T18:03:39.923Z,31.48
2022-12-19T18:06:25.939Z,31.05
2022-12-19T18:09:24.564Z,28.20
2022-12-19T18:12:11.095Z,28.17
2022-12-19T18:14:56.713Z,31.15
2022-12-19T18:17:43.362Z,28.85
2022-12-19T18:20:32.922Z,23.50
2022-12-19T18:23:23.463Z,29.88
2022-12-19T18:26:13.139Z,30.27
2022-12-19T18:28:58.488Z,31.30
2022-12-19T18:31:50.546Z,28.77
2022-12-19T18:34:37.703Z,29.42
2022-12-19T18:37:23.062Z,31.17
2022-12-19T18:40:25.998Z,28.75
2022-12-19T18:43:16.624Z,29.65
2022-12-19T18:46:02.224Z,29.55
2022-12-19T18:48:48.685Z,31.52
2022-12-19T18:51:36.087Z,30.23
2022-12-19T18:54:22.702Z,31.85
2022-12-19T18:57:08.929Z,31.83
2022-12-19T18:59:54.625Z,30.75
2022-12-19T19:02:46.975Z,31.75
2022-12-19T19:05:35.852Z,33.55
2022-12-19T19:08:27.455Z,30.17
2022-12-19T19:11:12.999Z,31.15
2022-12-19T19:13:58.459Z,30.05
2022-12-19T19:16:44.765Z,33.80
2022-12-19T19:19:30.538Z,30.20
2022-12-19T19:22:16.059Z,33.10
2022-12-19T19:25:01.407Z,27.88
2022-12-19T19:27:47.098Z,27.88
2022-12-19T19:30:37.680Z,27.17
2022-12-19T19:33:32.747Z,28.45
2022-12-19T19:36:24.659Z,27.88
2022-12-19T19:39:11.097Z,25.33
2022-12-19T19:41:56.540Z,24.13
2022-12-19T19:44:42.036Z,25.95
2022-12-19T19:47:32.324Z,26.95
2022-12-19T19:50:18.350Z,25.13
2022-12-19T19:53:03.934Z,23.45
2022-12-19T19:56:02.298Z,25.38
2022-12-19T19:58:47.773Z,26.60
2022-12-19T20:01:33.592Z,27.15
2022-12-19T20:04:19.206Z,26.00
2022-12-19T20:07:05.390Z,26.23
2022-12-19T20:09:50.839Z,26.85
2022-12-19T20:12:36.406Z,27.60
2022-12-19T20:15:21.989Z,27.92
2022-12-19T20:18:07.408Z,25.88
2022-12-19T20:20:52.816Z,26.52
2022-12-19T20:23:39.442Z,25.90
2022-12-19T20:26:24.745Z,28.15
2022-12-19T20:29:11.564Z,26.25
2022-12-19T20:31:57.224Z,25.50
2022-12-19T20:34:42.746Z,26.50
2022-12-19T20:37:28.665Z,26.40
2022-12-19T20:40:14.523Z,24.40
2022-12-19T20:43:00.143Z,26.02
2022-12-19T20:45:45.583Z,24.98
2022-12-19T20:48:31.588Z,26.33
2022-12-19T20:51:19.244Z,26.95
2022-12-19T20:54:05.310Z,25.30
2022-12-19T20:56:50.833Z,27.08
2022-12-19T20:59:36.387Z,25.40
2022-12-19T21:02:22.432Z,26.55
2022-12-19T21:05:09.082Z,26.17
2022-12-19T21:07:55.926Z,27.77
2022-12-19T21:10:41.560Z,27.08
2022-12-19T21:13:28.027Z,26.35
2022-12-19T21:16:17.644Z,26.05
2022-12-19T21:19:04.103Z,25.23
2022-12-19T21:21:50.195Z,26.00
2022-12-19T21:24:35.885Z,26.80
2022-12-19T21:27:21.210Z,26.90
2022-12-19T21:30:07.822Z,29.58
2022-12-19T21:32:53.635Z,27.30
2022-12-19T21:35:39.176Z,26.60
2022-12-19T21:38:24.828Z,26.65
2022-12-19T21:41:12.327Z,27.15
2022-12-19T21:43:58.862Z,23.95
2022-12-19T21:46:44.832Z,28.17
2022-12-19T21:49:30.329Z,26.27
2022-12-19T21:52:15.912Z,28.25
2022-12-19T21:55:03.343Z,26.02
2022-12-19T21:57:49.109Z,27.25
2022-12-19T22:00:35.694Z,25.77
2022-12-19T22:03:21.467Z,25.33
2022-12-19T22:06:09.110Z,25.10
2022-12-19T22:08:54.734Z,23.73
2022-12-19T22:11:40.406Z,25.05
2022-12-19T22:14:26.108Z,27.08
2022-12-19T22:17:11.813Z,27.27
2022-12-19T22:19:57.212Z,24.52
2022-12-19T22:22:42.581Z,26.08
2022-12-19T22:25:28.494Z,24.17
2022-12-19T22:28:14.003Z,24.75
2022-12-19T22:31:00.348Z,23.90
2022-12-19T22:33:47.538Z,24.20
2022-12-19T22:36:35.727Z,22.38
2022-12-19T22:39:22.544Z,23.20
2022-12-19T22:42:08.167Z,24.77
2022-12-19T22:44:53.736Z,22.52
2022-12-19T22:47:42.318Z,21.70
2022-12-19T22:50:27.945Z,22.42
2022-12-19T22:53:15.308Z,21.58
2022-12-19T22:56:09.110Z,21.33
2022-12-19T22:58:59.384Z,21.70
2022-12-19T23:01:45.547Z,23.70
2022-12-19T23:04:31.154Z,21.60
2022-12-19T23:07:16.880Z,23.90
2022-12-19T23:10:03.471Z,21.35
2022-12-19T23:12:49.547Z,20.10
2022-12-19T23:15:35.989Z,21.83
2022-12-19T23:18:21.645Z,21.65
2022-12-19T23:21:18.456Z,22.35
2022-12-19T23:24:04.280Z,19.95
2022-12-19T23:26:50.082Z,20.73
2022-12-19T23:29:35.710Z,22.10
2022-12-19T23:32:21.319Z,20.92
2022-12-19T23:35:08.753Z,20.48
2022-12-19T23:37:54.047Z,19.67
2022-12-19T23:40:39.403Z,22.05
2022-12-19T23:43:25.298Z,22.23
2022-12-19T23:46:21.800Z,21.52
2022-12-19T23:49:07.563Z,22.35
2022-12-19T23:51:52.969Z,21.25
2022-12-19T23:54:38.527Z,22.58
2022-12-19T23:57:23.904Z,21.48
